[source: ADDS]
METAR
EDVE 210350Z AUTO 00000KT 9999 // NCD 02/00 Q1015

TAF EDVE 201700Z 2018/2021 VRB03KT CAVOK EDDV 210350Z VRB01KT CAVOK 02/00 Q1015 NOSIG

TAF EDDV 202300Z 2100/2124 29003KT CAVOK BECMG 2108/2110 32008KT BECMG 2112/2114 33015G25KT BECMG 2117/2119 30007KT ETHS 210320Z 17001KT 9999 M02/M03 Q1015 BLU+

TAF ETHS 201920Z 2020/2105 02003KT 9999 NSW FEW070 ETHC 210320Z AUTO 21001KT 9999 // ////// 02/M00 Q1015 ///

TAF EDVK 201700Z 2018/2103 32004KT 9999 SCT045
TAF
TAF EDVE 201700Z 2018/2021 VRB03KT CAVOK

TAF EDDV 202300Z 2100/2124 29003KT CAVOK BECMG 2108/2110 32008KT BECMG 2112/2114 33015G25KT BECMG 2117/2119 30007KT

TAF ETHS 201920Z 2020/2105 02003KT 9999 NSW FEW070

TAF EDVK 201700Z 2018/2103 32004KT 9999 SCT045

SR / SS: 04:06 / 18:26 UTC (EDVE 2021-04-21)
Wir begrüßen Christian als neues Mitglied der FFG! Viel Spass und always Happy Landings! +++ Wir heißen Thiago als neuen Flugschüler willkommen und wünschen eine erfolgreiche Ausbildung! +++ Wir gratulieren Patrick und Paul zu ihrem ersten Soloflug! Herzlichen Glückwunsch und always Happy Landings! +++ Oussama hat seinen ersten Alleinflug absolviert! Herzlichen Glückwunsch und weiterhin Happy Landings! +++ Wir begrüßen Nicolas und Detlef in den Reihen der FFG! Herzlich Willkommen und always Happy Landings! +++ Herzlich willkommen bei der FFG, Patrik! Viel Spass und always Happy Landings! +++ Wir heißen Patrick und Fabrizio als neue Flugschüler willkommen und wünschen eine erfolgreiche Ausbildung! +++ Frederik hat seinen ersten Alleinflug absolviert! Herzlichen Glückwunsch und weiterhin Happy Landings! +++ Willkommen in der FFG, Torben! Viel Erfolg bei der Ausbildung!

wenig -> mittel -> viel

Professionelle Piloten arbeiten mit Checkliste
Ausdrucken und abarbeiten!

Weiterlesen ...

 Zugang zur DFS. Auf dem FFG-Account sind alle erforderlichen Daten unserer Maschinen hinterlegt.

DFS Login

Hier gibt es die AIP mit allen erforderlichen Karten die im Abo der FFG liegen zum Download für unsere Mitglieder.

Charts Zugang
Letztes NOTAM EDVE
von 22.04.2021 0700Z bis 22.04.2021 1200Z
AVGAS NOT AVBL.

Letztes NOTAM EDCB
von 28.03.2021 0802Z bis 30.04.2021 2359Z
AD HOURS OF OPS: DAILY 0700-1600. OTHER TIMES PPR.

Letztes NOTAM EDBC
von 16.04.2021 0810Z bis 03.06.2021 2359Z
ALL VFR AND IFR PROC TEMPO SUSPENDED. USABLE ONLY FOR FLIGHT VALIDATION.

Letztes NOTAM EDVM
von 06.03.2021 1032Z bis 04.06.2021 2359Z
CRANE 700M SW ARP, ELEV 415FT/120FT AGL. NOT MARKED.

Letztes NOTAM EDDV
von 21.04.2021 0800Z bis 22.04.2021 0500Z
TWY M CLSD BTN TWY O AND RWY 09C/27C.

Letztes NOTAM EDVK
von 14.04.2021 0811Z bis 14.07.2021 2359Z
PDG RAISED TO 4 PER CENT DUE TO OBSTACLES (250FT/NM) UNTIL PASSING 1200FT MSL FOR XAROL 2N, WRB 9N, LUXUX 2N, WERRA 7N DUE TO NEW OB [more]